Hauptseite
METAR-TAF:

METAR-TAF

Flughäfen :

Militärflugplatz Kleine Brogel

Peer, Belgien

Breite: 51-10N, Länge: 005-28E, Höhe: 55 m

Beobachtung

Neuester Wetterbericht von vor 30 Minuten, um 11:55 UTC
Wind 4 kt aus Ost
Temperatur 7°C
Luftfeuchtigkeit 76%
Luftdruck 1028 hPa
Sichtweite 10 km oder mehr

METAR: EBBL 161155Z AUTO 08004KT 9999 NCD 07/03 Q1028 BLU

Zeit: 13:25 (12:25 UTC)


TAF: fehlend

Wetterbeobachtungen und Prognosen von mehr als 4000 Flughäfen (METAR und TAF Bericht).

Die verfügbaren Stationen werden durch gelbe und rote Markierungen auf der Karte dargestellt.

Führen Sie die Maus auf sie, um den Namen der Station zu sehen.

Darauf klicken, um die Beobachtung von Wetterbeobachtungen und Prognosen zu sehen.

Um die Karte zu ändern : klicken Sie auf den grünen Tasten mit einem schwarzen Kreuz Zum Vergrößern, auf den grünen Button mit einem Gedankenstrich zu verkleinern, oder auf die grünen Pfeile für benachbarte Karten.


METAR-TAF: